KLBE/LBE METAR and TAF weather

Enter ICAO airport designator
Station Type Date Time Source
KLBE METAR 2020/07/12 03:15 UTC NOAA

KLBE 120315Z AUTO 00000KT 10SM CLR 18/16 A2983 RMK AO2


Station Type Date Time Source
KLBE Decoded METAR 2020/07/12 03:15 UTC NOAA

Latrobe / Westmorland, PA, United States (KLBE) 40-17N 079-24W
Jul 11, 2020 - 11:15 PM EDT / 2020.07.12 0315 UTC
Wind: Calm:0
Visibility: 10 mile(s):0
Sky conditions: clear
Temperature: 64 F (18 C)
Dew Point: 60 F (16 C)
Relative Humidity: 88%
Pressure (altimeter): 29.83 in. Hg (1010 hPa)
ob: KLBE 120315Z AUTO 00000KT 10SM CLR 18/16 A2983 RMK AO2
cycle: 3

Station Type Date Time Source
KLBE TAF 2020/07/11 19:06 UTC NOAA

TAF
AMD KLBE 111903Z 1119/1218 26014G20KT P6SM -RA OVC010
FM112000 28013G22KT P6SM SCT050
FM120000 24003KT P6SM FEW050
FM121700 25006KT 6SM -SHRA VCTS BKN040CB

Example: see airport list